Time;durP1;ratioP1;P1;durP2;ratioP2;P2;SDS_P1;SDS_P2;PMS_P1;PMS_P2;Temp;Humidity;BMP_temperature;BMP_pressure;BME280_temperature;BME280_humidity;BME280_pressure;Samples;Min_cycle;Max_cycle;Signal;HPM_P1;HPM_P2
2022/03/08 00:01:54;;;;;;;;;;;;;;;;;;5101165;28;20303;-79
2022/03/08 00:04:41;;;;;;;;;;;;;;;;;;5107577;28;19916;-80
2022/03/08 00:07:28;;;;;;;;;;;;;;;;;;5108318;28;19908;-80
2022/03/08 00:10:14;;;;;;;;;;;;;;;;;;5108171;28;19927;-80
2022/03/08 00:13:01;;;;;;;;;;;;;;;;;;5105379;28;20387;-81
2022/03/08 00:15:48;;;;;;;;;;;;;;;;;;5104938;28;19946;-79
2022/03/08 00:18:35;;;;;;;;;;;;;;;;;;5107637;28;19912;-79
2022/03/08 00:21:21;;;;;;;;;;;;;;;;;;5105588;28;19919;-79
2022/03/08 00:24:08;;;;;;;;;;;;;;;;;;5087366;28;19908;-79
2022/03/08 00:26:54;;;;;;;;;;;;;;;;;;5104527;28;20676;-79
2022/03/08 00:29:41;;;;;;;;;;;;;;;;;;5106183;28;20299;-79
2022/03/08 00:32:28;;;;;;;;;;;;;;;;;;5102177;28;19908;-80
2022/03/08 00:35:14;;;;;;;;;;;;;;;;;;5105188;28;19927;-80
2022/03/08 00:38:01;;;;;;;;;;;;;;;;;;5084112;28;19916;-79
2022/03/08 00:40:47;;;;;;;;;;;;;;;;;;5106836;28;19912;-79
2022/03/08 00:43:33;;;;;;;;;;;;;;;;;;5106398;28;19916;-80
2022/03/08 00:46:20;;;;;;;;;;;;;;;;;;5098337;28;20271;-78
2022/03/08 00:49:06;;;;;;;;;;;;;;;;;;5104815;28;19915;-78
2022/03/08 00:51:53;;;;;;;;;;;;;;;;;;5107100;28;19907;-79
2022/03/08 00:54:39;;;;;;;;;;;;;;;;;;5106927;28;19914;-79
2022/03/08 00:57:26;;;;;;;;;;;;;;;;;;5107649;28;19919;-78
2022/03/08 01:00:12;;;;;;;;;;;;;;;;;;5107828;28;19908;-79
2022/03/08 01:02:59;;;;;;;;;;;;;;;;;;5101030;28;20225;-79
2022/03/08 01:05:45;;;;;;;;;;;;;;;;;;5106603;28;19985;-79
2022/03/08 01:08:32;;;;;;;;;;;;;;;;;;5103017;28;19911;-80
2022/03/08 01:11:18;;;;;;;;;;;;;;;;;;5089623;28;20363;-79
2022/03/08 01:14:05;;;;;;;;;;;;;;;;;;5109200;28;19908;-79
2022/03/08 01:16:51;;;;;;;;;;;;;;;;;;5107631;28;19947;-79
2022/03/08 01:19:38;;;;;;;;;;;;;;;;;;5109937;27;20403;-79
2022/03/08 01:22:24;;;;;;;;;;;;;;;;;;5109152;28;19923;-79
2022/03/08 01:25:10;;;;;;;;;;;;;;;;;;5093579;28;20352;-80
2022/03/08 01:27:57;;;;;;;;;;;;;;;;;;5093891;28;19942;-79
2022/03/08 01:30:43;;;;;;;;;;;;;;;;;;5095215;28;19922;-79
2022/03/08 01:33:30;;;;;;;;;;;;;;;;;;5089749;28;20010;-80
2022/03/08 01:36:16;;;;;;;;;;;;;;;;;;5095404;28;19931;-79
2022/03/08 01:39:03;;;;;;;;;;;;;;;;;;5107418;28;20382;-79
2022/03/08 01:41:49;;;;;;;;;;;;;;;;;;5099063;28;19920;-79
2022/03/08 01:44:36;;;;;;;;;;;;;;;;;;5107049;28;19912;-79
2022/03/08 01:47:22;;;;;;;;;;;;;;;;;;5104012;28;19907;-80
2022/03/08 01:50:09;;;;;;;;;;;;;;;;;;5104263;28;19919;-79
2022/03/08 01:52:55;;;;;;;;;;;;;;;;;;5108363;28;19927;-78
2022/03/08 01:55:42;;;;;;;;;;;;;;;;;;5104104;28;20393;-78
2022/03/08 01:58:28;;;;;;;;;;;;;;;;;;5108498;28;19911;-79
2022/03/08 02:01:15;;;;;;;;;;;;;;;;;;5104312;28;19916;-79
2022/03/08 02:04:01;;;;;;;;;;;;;;;;;;5107722;28;19999;-79
2022/03/08 02:06:28;;;;;;;;;;;;;;;;;;5093989;28;19912;-80
2022/03/08 02:08:54;;;;;;;;;;;;;;;;;;5108415;28;19908;-79
2022/03/08 02:11:20;;;;;;;;;;;;;;;;;;5112867;28;19922;-79
2022/03/08 02:13:46;;;;;;;;;;;;;;;;;;5109468;28;19918;-80
2022/03/08 02:16:14;;;;;;;;;;;;;;;;;;5107305;28;19907;-80
2022/03/08 02:18:40;;;;;;;;;;;;;;;;;;5111999;28;19916;-79
2022/03/08 02:21:06;;;;;;;;;;;;;;;;;;5106630;28;19939;-79
2022/03/08 02:23:32;;;;;;;;;;;;;;;;;;5107634;28;19911;-79
2022/03/08 02:25:58;;;;;;;;;;;;;;;;;;5102581;28;19924;-79
2022/03/08 02:28:24;;;;;;;;;;;;;;;;;;5093323;27;20347;-80
2022/03/08 02:30:51;;;;;;;;;;;;;;;;;;5106387;28;19916;-80
2022/03/08 02:33:17;;;;;;;;;;;;;;;;;;5102525;28;19908;-80
2022/03/08 02:35:43;;;;;;;;;;;;;;;;;;5109004;28;19919;-80
2022/03/08 02:38:09;;;;;;;;;;;;;;;;;;5093404;28;20362;-80
2022/03/08 02:40:35;;;;;;;;;;;;;;;;;;5109343;28;19937;-79
2022/03/08 02:43:01;;;;;;;;;;;;;;;;;;5109906;28;19919;-79
2022/03/08 02:45:28;;;;;;;;;;;;;;;;;;5110322;28;19918;-79
2022/03/08 02:47:54;;;;;;;;;;;;;;;;;;5106574;28;20350;-80
2022/03/08 02:50:20;;;;;;;;;;;;;;;;;;5109689;28;19915;-80
2022/03/08 02:52:47;;;;;;;;;;;;;;;;;;5106323;28;19911;-80
2022/03/08 02:55:13;;;;;;;;;;;;;;;;;;5104177;28;19945;-80
2022/03/08 02:57:40;;;;;;;;;;;;;;;;;;5111262;28;19977;-80
2022/03/08 03:00:06;;;;;;;;;;;;;;;;;;5110071;28;19916;-80
2022/03/08 03:02:32;;;;;;;;;;;;;;;;;;5110191;28;19923;-80
2022/03/08 03:04:58;;;;;;;;;;;;;;;;;;5108874;28;20279;-80
2022/03/08 03:07:24;;;;;;;;;;;;;;;;;;5107939;28;19946;-79
2022/03/08 03:09:50;;;;;;;;;;;;;;;;;;5087367;28;19918;-79
2022/03/08 03:12:17;;;;;;;;;;;;;;;;;;5105994;28;19980;-79
2022/03/08 03:14:43;;;;;;;;;;;;;;;;;;5109129;28;19912;-80
2022/03/08 03:17:09;;;;;;;;;;;;;;;;;;5091326;28;20385;-82
2022/03/08 03:19:35;;;;;;;;;;;;;;;;;;5105585;28;20282;-80
2022/03/08 03:22:01;;;;;;;;;;;;;;;;;;5110247;28;19924;-80
2022/03/08 03:24:27;;;;;;;;;;;;;;;;;;5100433;28;19912;-80
2022/03/08 03:26:53;;;;;;;;;;;;;;;;;;5097031;28;20385;-80
2022/03/08 03:29:20;;;;;;;;;;;;;;;;;;5110778;28;19908;-80
2022/03/08 03:31:46;;;;;;;;;;;;;;;;;;5111266;28;20427;-80
2022/03/08 03:34:12;;;;;;;;;;;;;;;;;;5110369;28;19918;-81
2022/03/08 03:36:38;;;;;;;;;;;;;;;;;;5110312;28;20346;-80
2022/03/08 03:39:04;;;;;;;;;;;;;;;;;;5110317;28;19908;-80
2022/03/08 03:41:31;;;;;;;;;;;;;;;;;;5108328;28;19919;-80
2022/03/08 03:43:57;;;;;;;;;;;;;;;;;;5109688;28;19918;-80
2022/03/08 03:46:23;;;;;;;;;;;;;;;;;;5104117;28;19942;-80
2022/03/08 03:48:49;;;;;;;;;;;;;;;;;;5088809;28;19914;-80
2022/03/08 03:51:16;;;;;;;;;;;;;;;;;;5110230;28;19922;-80
2022/03/08 03:53:42;;;;;;;;;;;;;;;;;;5108078;28;19911;-79
2022/03/08 03:56:09;;;;;;;;;;;;;;;;;;5110182;28;19919;-80
2022/03/08 03:58:35;;;;;;;;;;;;;;;;;;5108952;28;20213;-81
2022/03/08 04:01:01;;;;;;;;;;;;;;;;;;5110122;28;19915;-81
2022/03/08 04:03:27;;;;;;;;;;;;;;;;;;5110281;28;19920;-81
2022/03/08 04:05:53;;;;;;;;;;;;;;;;;;5107777;28;19908;-81
2022/03/08 04:08:20;;;;;;;;;;;;;;;;;;5110603;28;19914;-79
2022/03/08 04:10:46;;;;;;;;;;;;;;;;;;5110048;28;19918;-79
2022/03/08 04:13:12;;;;;;;;;;;;;;;;;;5107930;28;19922;-79
2022/03/08 04:15:39;;;;;;;;;;;;;;;;;;5108786;28;19934;-80
2022/03/08 04:18:05;;;;;;;;;;;;;;;;;;5087407;28;19912;-78
2022/03/08 04:20:31;;;;;;;;;;;;;;;;;;5107907;28;19922;-78
2022/03/08 04:22:57;;;;;;;;;;;;;;;;;;5104234;28;19922;-78
2022/03/08 04:25:23;;;;;;;;;;;;;;;;;;5105552;28;19924;-78
2022/03/08 04:27:49;;;;;;;;;;;;;;;;;;5107700;28;19918;-78
2022/03/08 04:30:16;;;;;;;;;;;;;;;;;;5107564;28;19912;-78
2022/03/08 04:32:42;;;;;;;;;;;;;;;;;;5105415;28;19944;-77
2022/03/08 04:35:08;;;;;;;;;;;;;;;;;;5107428;28;19911;-77
2022/03/08 04:37:34;;;;;;;;;;;;;;;;;;5104896;28;19912;-78
2022/03/08 04:40:00;;;;;;;;;;;;;;;;;;5105692;28;19934;-79
2022/03/08 04:42:26;;;;;;;;;;;;;;;;;;5108125;28;20456;-78
2022/03/08 04:44:53;;;;;;;;;;;;;;;;;;5110682;28;20498;-78
2022/03/08 04:47:19;;;;;;;;;;;;;;;;;;5111266;28;19914;-78
2022/03/08 04:49:45;;;;;;;;;;;;;;;;;;5114064;28;19911;-77
2022/03/08 04:52:11;;;;;;;;;;;;;;;;;;5114474;27;19911;-77
2022/03/08 04:54:37;;;;;;;;;;;;;;;;;;5114959;28;19911;-78
2022/03/08 04:57:03;;;;;;;;;;;;;;;;;;5112108;28;19998;-77
2022/03/08 04:59:30;;;;;;;;;;;;;;;;;;5115008;28;19911;-77
2022/03/08 05:01:56;;;;;;;;;;;;;;;;;;5115115;28;19923;-77
2022/03/08 05:04:22;;;;;;;;;;;;;;;;;;5093081;28;19980;-75
2022/03/08 05:06:48;;;;;;;;;;;;;;;;;;5092975;28;19908;-77
2022/03/08 05:09:14;;;;;;;;;;;;;;;;;;5113488;28;19908;-77
2022/03/08 05:11:41;;;;;;;;;;;;;;;;;;5110845;28;20343;-76
2022/03/08 05:14:07;;;;;;;;;;;;;;;;;;5112004;28;19914;-77
2022/03/08 05:16:33;;;;;;;;;;;;;;;;;;5107847;28;19916;-75
2022/03/08 05:18:59;;;;;;;;;;;;;;;;;;5095365;28;19912;-75
2022/03/08 05:21:25;;;;;;;;;;;;;;;;;;5093750;27;19926;-77
2022/03/08 05:23:51;;;;;;;;;;;;;;;;;;5110178;28;19920;-76
2022/03/08 05:26:18;;;;;;;;;;;;;;;;;;5115133;27;19923;-77
2022/03/08 05:28:46;;;;;;;;;;;;;;;;;;5086819;28;20476;-77
2022/03/08 05:31:12;;;;;;;;;;;;;;;;;;5114429;28;19916;-78
2022/03/08 05:33:41;;;;;;;;;;;;;;;;;;5094897;28;20442;-78
2022/03/08 05:36:07;;;;;;;;;;;;;;;;;;5110527;28;19922;-78
2022/03/08 05:38:33;;;;;;;;;;;;;;;;;;5114309;27;19911;-78
2022/03/08 05:41:00;;;;;;;;;;;;;;;;;;5114137;27;19912;-78
2022/03/08 05:43:26;;;;;;;;;;;;;;;;;;5110615;27;19912;-77
2022/03/08 05:45:52;;;;;;;;;;;;;;;;;;5111097;27;20325;-78
2022/03/08 05:48:18;;;;;;;;;;;;;;;;;;5114415;27;19914;-79
2022/03/08 05:50:44;;;;;;;;;;;;;;;;;;5113659;27;19912;-77
2022/03/08 05:53:11;;;;;;;;;;;;;;;;;;5096132;28;19915;-77
2022/03/08 05:55:37;;;;;;;;;;;;;;;;;;5110894;27;19953;-77
2022/03/08 05:58:03;;;;;;;;;;;;;;;;;;5086315;28;19908;-78
2022/03/08 06:00:29;;;;;;;;;;;;;;;;;;5112528;28;20448;-78
2022/03/08 06:02:55;;;;;;;;;;;;;;;;;;5112275;28;20388;-79
2022/03/08 06:05:25;;;;;;;;;;;;;;;;;;5106034;28;19918;-78
2022/03/08 06:07:51;;;;;;;;;;;;;;;;;;5111254;28;19912;-78
2022/03/08 06:10:17;;;;;;;;;;;;;;;;;;5093595;28;19911;-77
2022/03/08 06:12:44;;;;;;;;;;;;;;;;;;5081084;28;19912;-78
2022/03/08 06:15:10;;;;;;;;;;;;;;;;;;5096084;28;19938;-77
2022/03/08 06:17:55;;;;;;;;;;;;;;;;;;5108841;28;19953;-78
2022/03/08 06:20:21;;;;;;;;;;;;;;;;;;5094310;28;19934;-78
2022/03/08 06:22:47;;;;;;;;;;;;;;;;;;5111145;28;19942;-77
2022/03/08 06:25:13;;;;;;;;;;;;;;;;;;5111720;28;19924;-78
2022/03/08 06:27:39;;;;;;;;;;;;;;;;;;5111754;28;19908;-78
2022/03/08 06:30:06;;;;;;;;;;;;;;;;;;5108704;28;19912;-77
2022/03/08 06:32:32;;;;;;;;;;;;;;;;;;5111858;28;19908;-77
2022/03/08 06:34:58;;;;;;;;;;;;;;;;;;5111247;28;19949;-78
2022/03/08 06:37:24;;;;;;;;;;;;;;;;;;5110740;28;19985;-79
2022/03/08 06:39:50;;;;;;;;;;;;;;;;;;5109727;28;20438;-78
2022/03/08 06:42:16;;;;;;;;;;;;;;;;;;5108753;28;19920;-78
2022/03/08 06:44:43;;;;;;;;;;;;;;;;;;5092920;28;19915;-79
2022/03/08 06:47:09;;;;;;;;;;;;;;;;;;5101921;28;19934;-78
2022/03/08 06:49:35;;;;;;;;;;;;;;;;;;5111601;28;19914;-78
2022/03/08 06:52:01;;;;;;;;;;;;;;;;;;5109646;28;19916;-78
2022/03/08 06:54:27;;;;;;;;;;;;;;;;;;5108044;28;19907;-78
2022/03/08 06:56:53;;;;;;;;;;;;;;;;;;5108651;28;19914;-78
2022/03/08 06:59:20;;;;;;;;;;;;;;;;;;5108227;28;20401;-77
2022/03/08 07:01:46;;;;;;;;;;;;;;;;;;5089896;28;19924;-78
2022/03/08 07:04:12;;;;;;;;;;;;;;;;;;5092048;28;19918;-77
2022/03/08 07:06:38;;;;;;;;;;;;;;;;;;5092513;28;19911;-77
2022/03/08 07:09:04;;;;;;;;;;;;;;;;;;5110438;28;20464;-77
2022/03/08 07:11:31;;;;;;;;;;;;;;;;;;5087941;28;19908;-77
2022/03/08 07:13:57;;;;;;;;;;;;;;;;;;5109871;28;19911;-76
2022/03/08 07:16:23;;;;;;;;;;;;;;;;;;5109369;27;19911;-77
2022/03/08 07:18:49;;;;;;;;;;;;;;;;;;5106811;28;19912;-77
2022/03/08 07:21:15;;;;;;;;;;;;;;;;;;5105314;28;20871;-77
2022/03/08 07:23:42;;;;;;;;;;;;;;;;;;5109018;28;19916;-78
2022/03/08 07:26:09;;;;;;;;;;;;;;;;;;5109280;28;19924;-77
2022/03/08 07:28:35;;;;;;;;;;;;;;;;;;5104372;28;19908;-76
2022/03/08 07:31:01;;;;;;;;;;;;;;;;;;5106187;28;19926;-77
2022/03/08 07:33:27;;;;;;;;;;;;;;;;;;5103366;28;19953;-78
2022/03/08 07:35:53;;;;;;;;;;;;;;;;;;5105101;28;20299;-76
2022/03/08 07:38:19;;;;;;;;;;;;;;;;;;5090441;28;20032;-78
2022/03/08 07:40:46;;;;;;;;;;;;;;;;;;5105535;28;19911;-76
2022/03/08 07:43:12;;;;;;;;;;;;;;;;;;5105490;28;19930;-76
2022/03/08 07:45:38;;;;;;;;;;;;;;;;;;5107801;28;20381;-76
2022/03/08 07:48:05;;;;;;;;;;;;;;;;;;5110267;28;19908;-76
2022/03/08 07:50:31;;;;;;;;;;;;;;;;;;5106418;28;19916;-76
2022/03/08 07:52:59;;;;;;;;;;;;;;;;;;5105601;28;19912;-76
2022/03/08 07:55:26;;;;;;;;;;;;;;;;;;5107367;28;19922;-76
2022/03/08 07:57:52;;;;;;;;;;;;;;;;;;5109620;28;19908;-76
2022/03/08 08:00:18;;;;;;;;;;;;;;;;;;5104611;28;19911;-75
2022/03/08 08:02:44;;;;;;;;;;;;;;;;;;5100747;28;19916;-76
2022/03/08 08:05:10;;;;;;;;;;;;;;;;;;5109683;28;19916;-75
2022/03/08 08:07:36;;;;;;;;;;;;;;;;;;5091235;28;19930;-75
2022/03/08 08:10:03;;;;;;;;;;;;;;;;;;5086204;28;20260;-76
2022/03/08 08:12:29;;;;;;;;;;;;;;;;;;5106125;28;19949;-75
2022/03/08 08:14:55;;;;;;;;;;;;;;;;;;5092318;28;19912;-75
2022/03/08 08:17:21;;;;;;;;;;;;;;;;;;5091627;28;19912;-76
2022/03/08 08:19:47;;;;;;;;;;;;;;;;;;5109318;28;19915;-75
2022/03/08 08:22:13;;;;;;;;;;;;;;;;;;5110010;28;20397;-77
2022/03/08 08:24:40;;;;;;;;;;;;;;;;;;5108819;28;19922;-76
2022/03/08 08:27:06;;;;;;;;;;;;;;;;;;5105567;28;20537;-76
2022/03/08 08:29:32;;;;;;;;;;;;;;;;;;5089982;28;19915;-76
2022/03/08 08:31:58;;;;;;;;;;;;;;;;;;5091550;28;19908;-77
2022/03/08 08:34:24;;;;;;;;;;;;;;;;;;5105089;28;19908;-76
2022/03/08 08:36:50;;;;;;;;;;;;;;;;;;5109386;28;19916;-76
2022/03/08 08:39:17;;;;;;;;;;;;;;;;;;5109554;28;19912;-76
2022/03/08 08:41:43;;;;;;;;;;;;;;;;;;5105997;28;19916;-76
2022/03/08 08:44:09;;;;;;;;;;;;;;;;;;5106106;28;19926;-76
2022/03/08 08:46:35;;;;;;;;;;;;;;;;;;5103345;28;19916;-76
2022/03/08 08:49:01;;;;;;;;;;;;;;;;;;5105930;28;19919;-76
2022/03/08 08:51:27;;;;;;;;;;;;;;;;;;5109693;28;20580;-76
2022/03/08 08:53:54;;;;;;;;;;;;;;;;;;5109662;28;19918;-76
2022/03/08 08:56:20;;;;;;;;;;;;;;;;;;5081299;28;20381;-76
2022/03/08 08:58:46;;;;;;;;;;;;;;;;;;5109374;28;19912;-76
2022/03/08 09:01:12;;;;;;;;;;;;;;;;;;5107926;28;20459;-77
2022/03/08 09:03:38;;;;;;;;;;;;;;;;;;5094075;28;19912;-76
2022/03/08 09:06:04;;;;;;;;;;;;;;;;;;5102761;28;19909;-76
2022/03/08 09:08:31;;;;;;;;;;;;;;;;;;5108980;28;19914;-76
2022/03/08 09:10:57;;;;;;;;;;;;;;;;;;5107812;28;19918;-76
2022/03/08 09:13:23;;;;;;;;;;;;;;;;;;5108732;28;20291;-77
2022/03/08 09:15:49;;;;;;;;;;;;;;;;;;5105866;28;19912;-75
2022/03/08 09:18:15;;;;;;;;;;;;;;;;;;5108851;28;19922;-76
2022/03/08 09:20:42;;;;;;;;;;;;;;;;;;5107059;28;19917;-76
2022/03/08 09:23:08;;;;;;;;;;;;;;;;;;5085672;28;20026;-76
2022/03/08 09:25:35;;;;;;;;;;;;;;;;;;5089943;28;19919;-76
2022/03/08 09:28:02;;;;;;;;;;;;;;;;;;5108608;28;19918;-77
2022/03/08 09:30:28;;;;;;;;;;;;;;;;;;5111925;28;19908;-76
2022/03/08 09:32:58;;;;;;;;;;;;;;;;;;5094047;28;19908;-76
2022/03/08 09:35:24;;;;;;;;;;;;;;;;;;5108195;28;19947;-77
2022/03/08 09:37:50;;;;;;;;;;;;;;;;;;5107814;28;19908;-77
2022/03/08 09:40:16;;;;;;;;;;;;;;;;;;5109219;28;19908;-77
2022/03/08 09:42:42;;;;;;;;;;;;;;;;;;5085984;28;19916;-76
2022/03/08 09:45:09;;;;;;;;;;;;;;;;;;5090876;28;19908;-77
2022/03/08 09:47:35;;;;;;;;;;;;;;;;;;5093940;28;19916;-77
2022/03/08 09:50:01;;;;;;;;;;;;;;;;;;5112110;28;19922;-77
2022/03/08 09:52:27;;;;;;;;;;;;;;;;;;5094127;28;20352;-77
2022/03/08 09:54:53;;;;;;;;;;;;;;;;;;5092220;28;19915;-77
2022/03/08 09:57:22;;;;;;;;;;;;;;;;;;5110980;28;19912;-77
2022/03/08 09:59:48;;;;;;;;;;;;;;;;;;5094218;28;19908;-77
2022/03/08 10:02:15;;;;;;;;;;;;;;;;;;5094201;28;19985;-76
2022/03/08 10:04:44;;;;;;;;;;;;;;;;;;5109009;28;19912;-77
2022/03/08 10:07:11;;;;;;;;;;;;;;;;;;5109274;28;19912;-77
2022/03/08 10:09:37;;;;;;;;;;;;;;;;;;5111970;28;19916;-76
2022/03/08 10:12:03;;;;;;;;;;;;;;;;;;5102587;28;19916;-77
2022/03/08 10:14:29;;;;;;;;;;;;;;;;;;5089678;28;19912;-77
2022/03/08 10:16:56;;;;;;;;;;;;;;;;;;5110825;28;19922;-76
2022/03/08 10:19:22;;;;;;;;;;;;;;;;;;5110518;28;19985;-77
2022/03/08 10:21:48;;;;;;;;;;;;;;;;;;5082464;28;19926;-76
2022/03/08 10:24:14;;;;;;;;;;;;;;;;;;5110663;28;19908;-77
2022/03/08 10:26:40;;;;;;;;;;;;;;;;;;5107023;28;19935;-76
2022/03/08 10:29:07;;;;;;;;;;;;;;;;;;5093602;28;19914;-77
2022/03/08 10:31:33;;;;;;;;;;;;;;;;;;5108847;28;19916;-77
2022/03/08 10:33:59;;;;;;;;;;;;;;;;;;5112043;28;19907;-76
2022/03/08 10:36:27;;;;;;;;;;;;;;;;;;5107788;28;19911;-76
2022/03/08 10:38:53;;;;;;;;;;;;;;;;;;5108384;28;19918;-76
2022/03/08 10:41:19;;;;;;;;;;;;;;;;;;5108070;28;19918;-76
2022/03/08 10:43:45;;;;;;;;;;;;;;;;;;5110286;28;19916;-76
2022/03/08 10:46:12;;;;;;;;;;;;;;;;;;5092476;28;19918;-76
2022/03/08 10:48:41;;;;;;;;;;;;;;;;;;5111797;28;19912;-76
2022/03/08 10:51:07;;;;;;;;;;;;;;;;;;5110903;28;19907;-76
2022/03/08 10:53:33;;;;;;;;;;;;;;;;;;5098416;28;19916;-76
2022/03/08 10:56:00;;;;;;;;;;;;;;;;;;5085456;28;19943;-76
2022/03/08 10:58:26;;;;;;;;;;;;;;;;;;5089966;28;20022;-76
2022/03/08 11:00:53;;;;;;;;;;;;;;;;;;5107829;28;19918;-76
2022/03/08 11:03:20;;;;;;;;;;;;;;;;;;5110968;27;19926;-76
2022/03/08 11:05:46;;;;;;;;;;;;;;;;;;5102345;28;19912;-76
2022/03/08 11:08:13;;;;;;;;;;;;;;;;;;5091448;28;19908;-76
2022/03/08 11:10:39;;;;;;;;;;;;;;;;;;5109242;28;19911;-77
2022/03/08 11:13:06;;;;;;;;;;;;;;;;;;5109261;27;19912;-76
2022/03/08 11:15:32;;;;;;;;;;;;;;;;;;5107229;28;19912;-77
2022/03/08 11:17:58;;;;;;;;;;;;;;;;;;5107032;28;19916;-78
2022/03/08 11:20:24;;;;;;;;;;;;;;;;;;5107707;28;19931;-76
2022/03/08 11:22:55;;;;;;;;;;;;;;;;;;5106329;28;19928;-76
2022/03/08 11:25:21;;;;;;;;;;;;;;;;;;5083913;28;19930;-76
2022/03/08 11:27:47;;;;;;;;;;;;;;;;;;5084720;28;19919;-77
2022/03/08 11:30:13;;;;;;;;;;;;;;;;;;5085281;28;19920;-76
2022/03/08 11:32:40;;;;;;;;;;;;;;;;;;5087722;28;20287;-76
2022/03/08 11:35:06;;;;;;;;;;;;;;;;;;5086642;28;19999;-77
2022/03/08 11:37:32;;;;;;;;;;;;;;;;;;5079452;28;19991;-77
2022/03/08 11:39:58;;;;;;;;;;;;;;;;;;5088402;28;19912;-77
2022/03/08 11:42:26;;;;;;;;;;;;;;;;;;5089053;28;19934;-75
2022/03/08 11:44:52;;;;;;;;;;;;;;;;;;5088908;28;19912;-75
2022/03/08 11:47:18;;;;;;;;;;;;;;;;;;5081028;28;20269;-76
2022/03/08 11:49:44;;;;;;;;;;;;;;;;;;5085219;28;19912;-76
2022/03/08 11:52:11;;;;;;;;;;;;;;;;;;5086888;28;20340;-76
2022/03/08 11:54:37;;;;;;;;;;;;;;;;;;5089641;28;19920;-76
2022/03/08 11:57:03;;;;;;;;;;;;;;;;;;5088713;28;20809;-76
2022/03/08 11:59:29;;;;;;;;;;;;;;;;;;5085357;28;19916;-77
2022/03/08 12:01:56;;;;;;;;;;;;;;;;;;5075712;28;19917;-77
2022/03/08 12:04:22;;;;;;;;;;;;;;;;;;5080923;28;19916;-77
2022/03/08 12:06:48;;;;;;;;;;;;;;;;;;5089582;28;19912;-77
2022/03/08 12:09:15;;;;;;;;;;;;;;;;;;5089544;28;20512;-77
2022/03/08 12:11:41;;;;;;;;;;;;;;;;;;5087747;28;19916;-77
2022/03/08 12:14:08;;;;;;;;;;;;;;;;;;5088389;28;19925;-77
2022/03/08 12:16:34;;;;;;;;;;;;;;;;;;5088500;28;19921;-77
2022/03/08 12:19:00;;;;;;;;;;;;;;;;;;5087270;28;19908;-76
2022/03/08 12:21:27;;;;;;;;;;;;;;;;;;5089467;28;19913;-76
2022/03/08 12:23:53;;;;;;;;;;;;;;;;;;5087581;28;20279;-77
2022/03/08 12:26:19;;;;;;;;;;;;;;;;;;5098242;28;19926;-77
2022/03/08 12:28:45;;;;;;;;;;;;;;;;;;5109922;28;19911;-77
2022/03/08 12:31:11;;;;;;;;;;;;;;;;;;5110109;28;19912;-77
2022/03/08 12:33:38;;;;;;;;;;;;;;;;;;5109040;28;19934;-77
2022/03/08 12:36:04;;;;;;;;;;;;;;;;;;5090184;28;19912;-77
2022/03/08 12:38:30;;;;;;;;;;;;;;;;;;5105995;28;19945;-77
2022/03/08 12:40:56;;;;;;;;;;;;;;;;;;5105720;28;19928;-77
2022/03/08 12:43:22;;;;;;;;;;;;;;;;;;5108662;28;19920;-77
2022/03/08 12:45:49;;;;;;;;;;;;;;;;;;5103618;28;19938;-78
2022/03/08 12:48:15;;;;;;;;;;;;;;;;;;5109419;28;19912;-77
2022/03/08 12:50:41;;;;;;;;;;;;;;;;;;5109083;28;19915;-77
2022/03/08 12:53:07;;;;;;;;;;;;;;;;;;5107155;28;20359;-77
2022/03/08 12:55:33;;;;;;;;;;;;;;;;;;5087223;28;19918;-77
2022/03/08 12:57:59;;;;;;;;;;;;;;;;;;5105117;28;19918;-77
2022/03/08 13:00:26;;;;;;;;;;;;;;;;;;5089935;28;19912;-77
2022/03/08 13:02:52;;;;;;;;;;;;;;;;;;5107187;28;20007;-77
2022/03/08 13:05:18;;;;;;;;;;;;;;;;;;5110799;28;19914;-77
2022/03/08 13:07:44;;;;;;;;;;;;;;;;;;5102787;27;20453;-78
2022/03/08 13:10:10;;;;;;;;;;;;;;;;;;5112170;28;19919;-77
2022/03/08 13:12:36;;;;;;;;;;;;;;;;;;5111522;28;19922;-77
2022/03/08 13:15:03;;;;;;;;;;;;;;;;;;5093144;28;19908;-77
2022/03/08 13:17:29;;;;;;;;;;;;;;;;;;5113309;28;20272;-78
2022/03/08 13:19:55;;;;;;;;;;;;;;;;;;5113046;28;19915;-77
2022/03/08 13:22:21;;;;;;;;;;;;;;;;;;5112649;28;19916;-77
2022/03/08 13:24:47;;;;;;;;;;;;;;;;;;5093474;28;19918;-77
2022/03/08 13:27:13;;;;;;;;;;;;;;;;;;5112328;28;20251;-77
2022/03/08 13:29:40;;;;;;;;;;;;;;;;;;5112510;28;19908;-78
2022/03/08 13:32:06;;;;;;;;;;;;;;;;;;5110059;28;19912;-77
2022/03/08 13:34:32;;;;;;;;;;;;;;;;;;5111702;28;19908;-77
2022/03/08 13:36:58;;;;;;;;;;;;;;;;;;5101803;27;19909;-77
2022/03/08 13:39:24;;;;;;;;;;;;;;;;;;5092221;28;20503;-77
2022/03/08 13:41:51;;;;;;;;;;;;;;;;;;5108547;28;19916;-77
2022/03/08 13:44:17;;;;;;;;;;;;;;;;;;5092615;28;19922;-77
2022/03/08 13:46:47;;;;;;;;;;;;;;;;;;5107235;28;20405;-77
2022/03/08 13:49:13;;;;;;;;;;;;;;;;;;5109346;28;19916;-77
2022/03/08 13:51:40;;;;;;;;;;;;;;;;;;5112676;28;19915;-77
2022/03/08 13:54:06;;;;;;;;;;;;;;;;;;5112126;28;19908;-78
2022/03/08 13:56:32;;;;;;;;;;;;;;;;;;5109737;27;19911;-77
2022/03/08 13:58:59;;;;;;;;;;;;;;;;;;5083034;28;19931;-77
2022/03/08 14:01:25;;;;;;;;;;;;;;;;;;5110269;28;20308;-77
2022/03/08 14:03:52;;;;;;;;;;;;;;;;;;5102633;28;19920;-77
2022/03/08 14:06:18;;;;;;;;;;;;;;;;;;5112517;28;19908;-77
2022/03/08 14:08:45;;;;;;;;;;;;;;;;;;5086086;28;19931;-77
2022/03/08 14:11:11;;;;;;;;;;;;;;;;;;5110489;28;20367;-77
2022/03/08 14:13:40;;;;;;;;;;;;;;;;;;5107479;27;19919;-77
2022/03/08 14:16:06;;;;;;;;;;;;;;;;;;5106295;28;19916;-77
2022/03/08 14:18:32;;;;;;;;;;;;;;;;;;5108776;28;19914;-79
2022/03/08 14:20:59;;;;;;;;;;;;;;;;;;5110730;27;19927;-78
2022/03/08 14:23:25;;;;;;;;;;;;;;;;;;5103467;28;20280;-78
2022/03/08 14:25:51;;;;;;;;;;;;;;;;;;5090481;28;20272;-78
2022/03/08 14:28:18;;;;;;;;;;;;;;;;;;5110790;28;19918;-78
2022/03/08 14:30:44;;;;;;;;;;;;;;;;;;5093874;28;19916;-78
2022/03/08 14:33:12;;;;;;;;;;;;;;;;;;5093571;28;19908;-78
2022/03/08 14:35:38;;;;;;;;;;;;;;;;;;5111659;28;19908;-78
2022/03/08 14:38:04;;;;;;;;;;;;;;;;;;5111941;28;19925;-77
2022/03/08 14:40:33;;;;;;;;;;;;;;;;;;5111824;28;20401;-78
2022/03/08 14:43:02;;;;;;;;;;;;;;;;;;5111918;28;20016;-78
2022/03/08 14:45:28;;;;;;;;;;;;;;;;;;5109830;28;19915;-78
2022/03/08 14:47:54;;;;;;;;;;;;;;;;;;5087404;28;19912;-78
2022/03/08 14:50:21;;;;;;;;;;;;;;;;;;5109789;28;19918;-77
2022/03/08 14:52:48;;;;;;;;;;;;;;;;;;5108478;28;19914;-78
2022/03/08 14:55:14;;;;;;;;;;;;;;;;;;5103730;28;19911;-78
2022/03/08 14:57:41;;;;;;;;;;;;;;;;;;5108438;28;20301;-77
2022/03/08 15:00:07;;;;;;;;;;;;;;;;;;5090466;28;19916;-77
2022/03/08 15:02:33;;;;;;;;;;;;;;;;;;5105800;28;20286;-77
2022/03/08 15:04:59;;;;;;;;;;;;;;;;;;5102746;28;19909;-77
2022/03/08 15:07:28;;;;;;;;;;;;;;;;;;5092906;28;19923;-76
2022/03/08 15:09:54;;;;;;;;;;;;;;;;;;5107151;28;19926;-77
2022/03/08 15:12:21;;;;;;;;;;;;;;;;;;5106866;28;19912;-79
2022/03/08 15:14:48;;;;;;;;;;;;;;;;;;5109146;28;19934;-77
2022/03/08 15:17:16;;;;;;;;;;;;;;;;;;5107404;27;19911;-77
2022/03/08 15:19:42;;;;;;;;;;;;;;;;;;5089321;28;19941;-77
2022/03/08 15:22:09;;;;;;;;;;;;;;;;;;5105177;28;20375;-77
2022/03/08 15:24:35;;;;;;;;;;;;;;;;;;5104562;28;19926;-77
2022/03/08 15:27:04;;;;;;;;;;;;;;;;;;5107695;28;19935;-77
2022/03/08 15:29:30;;;;;;;;;;;;;;;;;;5108024;28;19907;-77
2022/03/08 15:31:56;;;;;;;;;;;;;;;;;;5109054;28;19926;-77
2022/03/08 15:34:23;;;;;;;;;;;;;;;;;;5091592;28;20314;-76
2022/03/08 15:36:49;;;;;;;;;;;;;;;;;;5108431;28;19912;-77
2022/03/08 15:39:15;;;;;;;;;;;;;;;;;;5110124;28;19911;-77
2022/03/08 15:41:42;;;;;;;;;;;;;;;;;;5106771;28;20362;-78
2022/03/08 15:44:08;;;;;;;;;;;;;;;;;;5109323;28;19916;-75
2022/03/08 15:46:34;;;;;;;;;;;;;;;;;;5108365;28;19915;-76
2022/03/08 15:49:01;;;;;;;;;;;;;;;;;;5105884;28;20360;-76
2022/03/08 15:51:27;;;;;;;;;;;;;;;;;;5106998;28;20316;-76
2022/03/08 15:53:53;;;;;;;;;;;;;;;;;;5104889;28;19908;-76
2022/03/08 15:56:20;;;;;;;;;;;;;;;;;;5108224;28;19914;-76
2022/03/08 15:58:47;;;;;;;;;;;;;;;;;;5087422;28;19925;-76
2022/03/08 16:01:13;;;;;;;;;;;;;;;;;;5087882;28;19922;-76
2022/03/08 16:03:39;;;;;;;;;;;;;;;;;;5089192;28;19934;-77
2022/03/08 16:06:05;;;;;;;;;;;;;;;;;;5105190;28;19920;-76
2022/03/08 16:08:31;;;;;;;;;;;;;;;;;;5106634;28;19916;-76
2022/03/08 16:10:57;;;;;;;;;;;;;;;;;;5107536;28;19912;-76
2022/03/08 16:13:27;;;;;;;;;;;;;;;;;;5105800;28;19914;-77
2022/03/08 16:15:53;;;;;;;;;;;;;;;;;;5107813;28;19914;-76
2022/03/08 16:18:19;;;;;;;;;;;;;;;;;;5107555;28;19908;-77
2022/03/08 16:20:45;;;;;;;;;;;;;;;;;;5090986;28;19912;-78
2022/03/08 16:23:12;;;;;;;;;;;;;;;;;;5109163;28;19926;-77
2022/03/08 16:25:38;;;;;;;;;;;;;;;;;;5108933;28;19922;-77
2022/03/08 16:28:04;;;;;;;;;;;;;;;;;;5092002;27;19920;-77
2022/03/08 16:30:30;;;;;;;;;;;;;;;;;;5110421;27;20287;-77
2022/03/08 16:32:56;;;;;;;;;;;;;;;;;;5106031;28;19918;-76
2022/03/08 16:35:22;;;;;;;;;;;;;;;;;;5109258;28;19908;-77
2022/03/08 16:37:49;;;;;;;;;;;;;;;;;;5088260;28;20451;-77
2022/03/08 16:40:15;;;;;;;;;;;;;;;;;;5106696;28;19926;-77
2022/03/08 16:42:41;;;;;;;;;;;;;;;;;;5107419;28;19926;-77
2022/03/08 16:45:09;;;;;;;;;;;;;;;;;;5107622;28;19912;-77
2022/03/08 16:47:35;;;;;;;;;;;;;;;;;;5107300;28;19937;-77
2022/03/08 16:50:01;;;;;;;;;;;;;;;;;;5107348;28;19915;-78
2022/03/08 16:52:27;;;;;;;;;;;;;;;;;;5107706;28;19918;-78
2022/03/08 16:54:53;;;;;;;;;;;;;;;;;;5104075;28;20385;-77